GMAD/AGA METAR and TAF weather

Enter ICAO airport designator
Station Type Date Time Source
GMAD METAR 2019/12/14 06:00 UTC NOAA

GMAD 140600Z 06007KT 2000 BR NSC 08/08 Q1020 NOSIG


Station Type Date Time Source
GMAD Decoded METAR 2019/12/14 06:00 UTC NOAA

Agadir Al Massira, Morocco (GMAD) 30-20N 009-24W 74M
Dec 14, 2019 - 01:00 AM EST / 2019.12.14 0600 UTC
Wind: from the ENE (060 degrees) at 8 MPH (7 KT):0
Visibility: 1 mile(s):0
Weather: mist
Temperature: 46 F (8 C)
Dew Point: 46 F (8 C)
Relative Humidity: 100%
Pressure (altimeter): 30.12 in. Hg (1020 hPa)
ob: GMAD 140600Z 06007KT 2000 BR NSC 08/08 Q1020 NOSIG
cycle: 6

Station Type Date Time Source
GMAD TAF 2019/12/14 06:45 UTC NOAA

TAF GMAD 140500Z 1406/1512 06007KT 2000 BR SCT006
TEMPO40 1406/1409 0500 FG BKN003
BECMG 1409/1411 8000 FEW010
BECMG 1413/1415 27012KT CAVOK

Example: see airport list